createdAt,value
2019-06-07T00:00:36.654Z,24.00
2019-06-07T00:01:13.838Z,24.00
2019-06-07T00:02:13.287Z,24.00
2019-06-07T00:03:23.986Z,24.00
2019-06-07T00:04:14.157Z,24.00
2019-06-07T00:05:14.996Z,28.00
2019-06-07T00:06:19.604Z,24.00
2019-06-07T00:07:14.976Z,28.00
2019-06-07T00:08:21.319Z,28.00
2019-06-07T00:09:15.340Z,28.00
2019-06-07T00:10:36.050Z,36.00
2019-06-07T00:11:15.670Z,36.00
2019-06-07T00:12:14.917Z,36.00
2019-06-07T00:13:15.205Z,36.00
2019-06-07T00:14:15.820Z,36.00
2019-06-07T00:15:20.011Z,40.00
2019-06-07T00:16:14.957Z,44.00
2019-06-07T00:17:15.364Z,44.00
2019-06-07T00:18:15.085Z,44.00
2019-06-07T00:19:15.931Z,48.00
2019-06-07T00:20:15.597Z,48.00
2019-06-07T00:21:14.439Z,52.00
2019-06-07T00:22:18.343Z,52.00
2019-06-07T00:23:15.878Z,56.00
2019-06-07T00:24:15.900Z,56.00
2019-06-07T00:25:15.127Z,56.00
2019-06-07T00:26:14.005Z,60.00
2019-06-07T00:27:12.895Z,60.00
2019-06-07T00:28:13.269Z,60.00
2019-06-07T00:29:15.369Z,64.00
2019-06-07T00:30:35.927Z,64.00
2019-06-07T00:31:14.914Z,64.00
2019-06-07T00:32:14.403Z,68.00
2019-06-07T00:33:16.624Z,72.00
2019-06-07T00:34:13.950Z,72.00
2019-06-07T00:35:14.749Z,76.00
2019-06-07T00:36:14.685Z,80.00
2019-06-07T00:37:12.740Z,80.00
2019-06-07T00:38:12.052Z,84.00
2019-06-07T00:39:14.460Z,84.00
2019-06-07T00:40:17.966Z,84.00
2019-06-07T00:41:22.681Z,88.00
2019-06-07T00:42:16.646Z,92.00
2019-06-07T00:43:16.357Z,92.00
2019-06-07T00:44:12.506Z,100.00
2019-06-07T00:45:14.037Z,104.00
2019-06-07T00:46:15.730Z,108.00
2019-06-07T00:47:13.060Z,116.00
2019-06-07T00:48:21.283Z,120.00
2019-06-07T00:49:29.013Z,128.00
2019-06-07T00:50:13.759Z,132.00
2019-06-07T00:51:13.984Z,136.00
2019-06-07T00:53:07.040Z,148.00
2019-06-07T00:53:18.244Z,152.00
2019-06-07T00:54:15.013Z,160.00
2019-06-07T00:55:15.212Z,164.00
2019-06-07T00:56:11.867Z,168.00
2019-06-07T00:57:12.401Z,176.00
2019-06-07T00:58:13.577Z,184.00
2019-06-07T00:59:14.701Z,192.00
2019-06-07T01:00:14.760Z,196.00
2019-06-07T01:01:13.116Z,208.00
2019-06-07T01:02:14.645Z,212.00
2019-06-07T01:03:12.686Z,220.00
2019-06-07T01:04:13.131Z,232.00
2019-06-07T01:05:15.411Z,236.00
2019-06-07T01:06:12.799Z,248.00
2019-06-07T01:07:13.223Z,256.00
2019-06-07T01:08:14.379Z,264.00
2019-06-07T01:09:12.817Z,272.00
2019-06-07T01:10:13.663Z,276.00
2019-06-07T01:11:11.708Z,288.00
2019-06-07T01:12:24.594Z,296.00
2019-06-07T01:13:11.675Z,300.00
2019-06-07T01:14:11.643Z,312.00
2019-06-07T01:15:11.667Z,316.00
2019-06-07T01:16:11.645Z,324.00
2019-06-07T01:17:23.390Z,332.00
2019-06-07T01:18:36.143Z,340.00
2019-06-07T01:19:13.800Z,344.00
2019-06-07T01:20:11.604Z,356.00
2019-06-07T01:21:11.644Z,364.00
2019-06-07T01:22:11.571Z,368.00
2019-06-07T01:23:51.641Z,376.00
2019-06-07T01:24:12.786Z,388.00
2019-06-07T01:25:11.541Z,396.00
2019-06-07T01:26:11.579Z,404.00
2019-06-07T01:27:11.539Z,416.00
2019-06-07T01:28:11.502Z,424.00
2019-06-07T01:29:11.518Z,432.00
2019-06-07T01:30:11.481Z,444.00
2019-06-07T01:31:11.470Z,448.00
2019-06-07T01:32:11.472Z,460.00
2019-06-07T01:33:11.473Z,472.00
2019-06-07T01:34:11.457Z,480.00
2019-06-07T01:35:11.443Z,496.00
2019-06-07T01:36:11.646Z,500.00
2019-06-07T01:37:11.414Z,512.00
2019-06-07T01:38:11.400Z,524.00
2019-06-07T01:39:11.444Z,536.00
2019-06-07T01:40:11.397Z,544.00
2019-06-07T01:41:11.364Z,556.00
2019-06-07T01:42:11.353Z,568.00
2019-06-07T01:43:27.062Z,580.00
2019-06-07T01:44:12.390Z,588.00
2019-06-07T01:45:11.316Z,600.00
2019-06-07T01:46:11.308Z,612.00
2019-06-07T01:47:11.348Z,620.00
2019-06-07T01:48:11.289Z,632.00
2019-06-07T01:49:11.276Z,644.00
2019-06-07T01:50:11.300Z,656.00
2019-06-07T01:51:11.256Z,664.00
2019-06-07T01:52:11.257Z,676.00
2019-06-07T01:53:11.258Z,684.00
2019-06-07T01:54:49.380Z,696.00
2019-06-07T01:55:12.249Z,704.00
2019-06-07T01:56:11.209Z,716.00
2019-06-07T01:57:29.451Z,728.00
2019-06-07T01:58:12.200Z,736.00
2019-06-07T01:59:11.177Z,748.00
2019-06-07T02:00:11.168Z,760.00
2019-06-07T02:01:11.166Z,772.00
2019-06-07T02:02:11.161Z,780.00
2019-06-07T02:03:11.148Z,792.00
2019-06-07T02:04:11.106Z,796.00
2019-06-07T02:05:11.118Z,808.00
2019-06-07T02:06:11.138Z,816.00
2019-06-07T02:07:11.100Z,824.00
2019-06-07T02:08:11.088Z,836.00
2019-06-07T02:09:11.066Z,844.00
2019-06-07T02:10:11.059Z,856.00
2019-06-07T02:11:11.048Z,860.00
2019-06-07T02:12:25.718Z,872.00
2019-06-07T02:13:12.015Z,880.00
2019-06-07T02:14:25.313Z,892.00
2019-06-07T02:15:11.000Z,900.00
2019-06-07T02:16:11.006Z,908.00
2019-06-07T02:17:10.971Z,916.00
2019-06-07T02:18:10.983Z,924.00
2019-06-07T02:19:10.970Z,932.00
2019-06-07T02:20:10.957Z,940.00
2019-06-07T02:21:10.955Z,948.00
2019-06-07T02:22:10.935Z,952.00
2019-06-07T02:23:10.935Z,964.00
2019-06-07T02:24:10.921Z,976.00
2019-06-07T02:25:37.391Z,980.00
2019-06-07T02:26:11.880Z,992.00
2019-06-07T02:27:10.923Z,996.00
2019-06-07T02:28:27.218Z,1004.00
2019-06-07T02:29:11.851Z,1012.00
2019-06-07T02:30:36.899Z,1020.00
2019-06-07T02:31:11.836Z,1024.00
2019-06-07T02:32:10.813Z,1036.00
2019-06-07T02:33:10.821Z,1044.00
2019-06-07T02:34:10.852Z,1048.00
2019-06-07T02:35:10.784Z,1060.00
2019-06-07T02:36:10.794Z,1068.00
2019-06-07T02:37:10.772Z,1076.00
2019-06-07T02:38:10.784Z,1088.00
2019-06-07T02:39:10.796Z,1096.00
2019-06-07T02:40:10.743Z,1108.00
2019-06-07T02:41:10.733Z,1116.00
2019-06-07T02:42:10.701Z,1128.00
2019-06-07T02:43:10.720Z,1144.00
2019-06-07T02:44:10.704Z,1156.00
2019-06-07T02:45:24.215Z,1164.00
2019-06-07T02:46:25.419Z,1176.00
2019-06-07T02:47:11.652Z,1188.00
2019-06-07T02:48:10.655Z,1200.00
2019-06-07T02:49:10.644Z,1216.00
2019-06-07T02:50:10.660Z,1224.00
2019-06-07T02:51:10.624Z,1232.00
2019-06-07T02:52:10.624Z,1244.00
2019-06-07T02:53:10.602Z,1248.00
2019-06-07T02:54:10.604Z,1256.00
2019-06-07T02:55:10.621Z,1268.00
2019-06-07T02:57:11.576Z,1292.00
2019-06-07T02:58:10.546Z,1300.00
2019-06-07T02:59:10.540Z,1312.00
2019-06-07T03:00:40.653Z,1324.00
2019-06-07T03:01:11.520Z,1332.00
2019-06-07T03:02:10.502Z,1344.00
2019-06-07T03:03:10.497Z,1352.00
2019-06-07T03:04:10.513Z,1364.00
2019-06-07T03:05:10.477Z,1372.00
2019-06-07T03:06:10.451Z,1376.00
2019-06-07T03:07:10.493Z,1388.00
2019-06-07T03:08:10.431Z,1396.00
2019-06-07T03:09:10.410Z,1404.00
2019-06-07T03:10:10.542Z,1412.00
2019-06-07T03:11:10.400Z,1416.00
2019-06-07T03:12:10.391Z,1420.00
2019-06-07T03:13:10.400Z,1428.00
2019-06-07T03:14:10.372Z,1440.00
2019-06-07T03:15:10.361Z,1440.00
2019-06-07T03:16:22.649Z,1448.00
2019-06-07T03:17:10.328Z,1460.00
2019-06-07T03:18:10.320Z,1464.00
2019-06-07T03:19:10.317Z,1472.00
2019-06-07T03:20:10.297Z,1480.00
2019-06-07T03:21:10.289Z,1484.00
2019-06-07T03:22:10.286Z,1492.00
2019-06-07T03:23:10.288Z,1496.00
2019-06-07T03:24:10.259Z,1504.00
2019-06-07T03:25:10.250Z,1512.00
2019-06-07T03:26:10.270Z,1516.00
2019-06-07T03:27:34.071Z,1524.00
2019-06-07T03:28:11.263Z,1532.00
2019-06-07T03:29:10.204Z,1544.00
2019-06-07T03:30:36.060Z,1556.00
2019-06-07T03:31:11.206Z,1564.00
2019-06-07T03:32:10.181Z,1576.00
2019-06-07T03:33:10.216Z,1584.00
2019-06-07T03:34:10.162Z,1592.00
2019-06-07T03:35:10.138Z,1604.00
2019-06-07T03:36:23.288Z,1612.00
2019-06-07T03:37:11.139Z,1624.00
2019-06-07T03:38:10.106Z,1636.00
2019-06-07T03:39:10.140Z,1640.00
2019-06-07T03:40:10.088Z,1652.00
2019-06-07T03:41:10.089Z,1660.00
2019-06-07T03:42:10.082Z,1672.00
2019-06-07T03:43:10.055Z,1684.00
2019-06-07T03:44:10.046Z,1692.00
2019-06-07T03:45:10.043Z,1700.00
2019-06-07T03:46:10.027Z,1708.00
2019-06-07T03:47:19.893Z,1716.00
2019-06-07T03:48:10.016Z,1728.00
2019-06-07T03:49:10.025Z,1740.00
2019-06-07T03:50:09.995Z,1752.00
2019-06-07T03:51:24.055Z,1760.00
2019-06-07T03:52:10.953Z,1768.00
2019-06-07T03:53:09.943Z,1776.00
2019-06-07T03:54:09.943Z,1792.00
2019-06-07T03:55:09.966Z,1804.00
2019-06-07T03:56:10.246Z,1812.00
2019-06-07T03:57:09.911Z,1824.00
2019-06-07T03:59:10.900Z,1840.00
2019-06-07T04:00:09.884Z,1852.00
2019-06-07T04:01:09.861Z,1860.00
2019-06-07T04:02:09.893Z,1864.00
2019-06-07T04:03:09.842Z,1876.00
2019-06-07T04:04:09.827Z,1884.00
2019-06-07T04:05:09.812Z,1896.00
2019-06-07T04:06:09.818Z,1900.00
2019-06-07T04:07:09.806Z,1908.00
2019-06-07T04:08:09.822Z,1912.00
2019-06-07T04:09:09.795Z,1920.00
2019-06-07T04:10:09.779Z,1932.00
2019-06-07T04:11:09.747Z,1944.00
2019-06-07T04:12:09.748Z,1952.00
2019-06-07T04:13:09.743Z,1960.00
2019-06-07T04:14:09.723Z,1976.00
2019-06-07T04:15:09.717Z,1988.00
2019-06-07T04:16:09.724Z,2000.00
2019-06-07T04:17:09.678Z,2016.00
2019-06-07T04:18:21.539Z,2032.00
2019-06-07T04:19:09.655Z,2044.00
2019-06-07T04:20:09.675Z,2056.00
2019-06-07T04:21:09.647Z,2060.00
2019-06-07T04:22:09.682Z,2072.00
2019-06-07T04:23:27.347Z,2080.00
2019-06-07T04:24:10.615Z,2088.00
2019-06-07T04:25:09.598Z,2100.00
2019-06-07T04:26:09.590Z,2108.00
2019-06-07T04:27:09.597Z,2120.00
2019-06-07T04:28:09.589Z,2132.00
2019-06-07T04:29:32.320Z,2144.00
2019-06-07T04:30:10.536Z,2156.00
2019-06-07T04:31:09.576Z,2172.00
2019-06-07T04:32:09.518Z,2180.00
2019-06-07T04:33:09.517Z,2200.00
2019-06-07T04:34:09.507Z,2208.00
2019-06-07T04:35:09.529Z,2216.00
2019-06-07T04:36:09.497Z,2228.00
2019-06-07T04:37:09.466Z,2252.00
2019-06-07T04:38:09.446Z,2252.00
2019-06-07T04:39:09.436Z,2272.00
2019-06-07T04:40:09.441Z,2264.00
2019-06-07T04:41:09.457Z,2288.00
2019-06-07T04:42:09.426Z,2296.00
2019-06-07T04:43:09.427Z,2300.00
2019-06-07T04:44:09.386Z,2312.00
2019-06-07T04:45:32.506Z,2312.00
2019-06-07T04:46:10.378Z,2316.00
2019-06-07T04:47:09.374Z,2328.00
2019-06-07T04:48:09.364Z,2336.00
2019-06-07T04:49:20.996Z,2352.00
2019-06-07T04:50:09.348Z,2368.00
2019-06-07T04:51:09.397Z,2384.00
2019-06-07T04:52:09.305Z,2396.00
2019-06-07T04:53:09.306Z,2400.00
2019-06-07T04:54:09.295Z,2376.00
2019-06-07T04:55:09.270Z,2380.00
2019-06-07T04:56:09.267Z,2388.00
2019-06-07T04:57:09.265Z,2396.00
2019-06-07T04:58:09.276Z,2400.00
2019-06-07T04:59:09.233Z,2412.00
2019-06-07T05:00:46.197Z,2420.00
2019-06-07T05:01:26.388Z,2436.00
2019-06-07T05:02:10.247Z,2444.00
2019-06-07T05:03:09.215Z,2448.00
2019-06-07T05:04:09.194Z,2456.00
2019-06-07T05:05:09.187Z,2468.00
2019-06-07T05:06:09.179Z,2476.00
2019-06-07T05:07:09.198Z,2488.00
2019-06-07T05:08:26.974Z,2496.00
2019-06-07T05:09:10.147Z,2500.00
2019-06-07T05:10:09.136Z,2552.00
2019-06-07T05:11:09.103Z,2572.00
2019-06-07T05:12:09.093Z,2572.00
2019-06-07T05:13:09.086Z,2600.00
2019-06-07T05:14:09.084Z,2608.00
2019-06-07T05:15:09.062Z,2616.00
2019-06-07T05:16:09.066Z,2616.00
2019-06-07T05:17:09.069Z,2620.00
2019-06-07T05:18:09.060Z,2624.00
2019-06-07T05:19:09.047Z,2632.00
2019-06-07T05:20:19.344Z,2640.00
2019-06-07T05:21:09.005Z,2648.00
2019-06-07T05:22:08.987Z,2660.00
2019-06-07T05:23:08.977Z,2664.00
2019-06-07T05:24:10.523Z,2668.00
2019-06-07T05:25:08.973Z,2680.00
2019-06-07T05:26:08.974Z,2684.00
2019-06-07T05:27:08.947Z,2700.00
2019-06-07T05:28:08.914Z,2708.00
2019-06-07T05:29:08.914Z,2704.00
2019-06-07T05:30:36.112Z,2712.00
2019-06-07T05:31:09.892Z,2716.00
2019-06-07T05:32:08.883Z,2724.00
2019-06-07T05:33:08.877Z,2736.00
2019-06-07T05:34:08.862Z,2740.00
2019-06-07T05:35:08.924Z,2740.00
2019-06-07T05:36:08.836Z,2744.00
2019-06-07T05:37:11.972Z,2748.00
2019-06-07T05:38:08.826Z,2748.00
2019-06-07T05:39:08.849Z,2752.00
2019-06-07T05:40:08.809Z,2752.00
2019-06-07T05:41:08.803Z,2760.00
2019-06-07T05:42:08.778Z,2776.00
2019-06-07T05:43:08.766Z,2776.00
2019-06-07T05:44:12.716Z,2780.00
2019-06-07T05:45:08.767Z,2788.00
2019-06-07T05:46:08.731Z,2804.00
2019-06-07T05:47:08.733Z,2824.00
2019-06-07T05:48:08.768Z,2828.00
2019-06-07T05:49:08.703Z,2828.00
2019-06-07T05:50:38.022Z,2848.00
2019-06-07T05:51:18.781Z,2848.00
2019-06-07T05:52:08.704Z,2856.00
2019-06-07T05:53:08.653Z,2856.00
2019-06-07T05:54:08.642Z,2856.00
2019-06-07T05:55:08.644Z,2868.00
2019-06-07T05:56:08.888Z,2872.00
2019-06-07T05:57:08.601Z,2876.00
2019-06-07T05:58:08.601Z,2892.00
2019-06-07T05:59:08.592Z,2892.00
2019-06-07T06:00:08.584Z,2904.00
2019-06-07T06:01:42.374Z,2900.00
2019-06-07T06:02:22.309Z,2896.00
2019-06-07T06:03:09.609Z,2908.00
2019-06-07T06:04:08.559Z,2920.00
2019-06-07T06:05:08.540Z,2928.00
2019-06-07T06:06:08.525Z,2940.00
2019-06-07T06:07:08.521Z,2932.00
2019-06-07T06:08:08.535Z,2952.00
2019-06-07T06:09:13.821Z,2948.00
2019-06-07T06:10:09.469Z,2952.00
2019-06-07T06:11:08.473Z,2960.00
2019-06-07T06:12:08.456Z,2964.00
2019-06-07T06:13:08.453Z,2952.00
2019-06-07T06:14:08.651Z,2956.00
2019-06-07T06:15:08.443Z,2960.00
2019-06-07T06:16:08.403Z,2980.00
2019-06-07T06:17:08.415Z,2980.00
2019-06-07T06:18:08.393Z,2980.00
2019-06-07T06:19:08.381Z,2988.00
2019-06-07T06:21:18.071Z,3008.00
2019-06-07T06:23:23.326Z,3052.00
2019-06-07T06:24:23.343Z,3056.00
2019-06-07T06:25:33.151Z,3072.00
2019-06-07T06:26:24.335Z,3080.00
2019-06-07T06:28:02.573Z,3092.00
2019-06-07T06:28:24.277Z,3108.00
2019-06-07T06:29:23.267Z,3128.00
2019-06-07T06:30:23.274Z,3124.00
2019-06-07T06:31:23.248Z,3140.00
2019-06-07T06:32:41.955Z,3152.00
2019-06-07T06:33:33.769Z,3160.00
2019-06-07T06:34:24.217Z,3164.00
2019-06-07T06:35:23.200Z,3176.00
2019-06-07T06:36:23.313Z,3188.00
2019-06-07T06:37:23.201Z,3188.00
2019-06-07T06:38:23.171Z,3196.00
2019-06-07T06:39:23.157Z,3204.00
2019-06-07T06:40:23.169Z,3220.00
2019-06-07T06:41:23.153Z,3216.00
2019-06-07T06:42:23.137Z,3216.00
2019-06-07T06:43:23.116Z,3208.00
2019-06-07T06:44:23.130Z,3204.00
2019-06-07T06:45:23.101Z,3204.00
2019-06-07T06:46:38.310Z,3212.00
2019-06-07T06:47:24.091Z,3224.00
2019-06-07T06:48:23.105Z,3232.00
2019-06-07T06:49:23.079Z,3244.00
2019-06-07T06:50:23.083Z,3248.00
2019-06-07T06:51:23.047Z,3256.00
2019-06-07T06:52:23.093Z,3272.00
2019-06-07T06:54:46.630Z,3272.00
2019-06-07T06:55:43.968Z,3284.00
2019-06-07T06:56:45.140Z,3284.00
2019-06-07T06:57:43.411Z,3272.00
2019-06-07T06:59:21.977Z,3244.00
2019-06-07T06:59:45.088Z,3256.00
2019-06-07T07:00:50.324Z,3260.00
2019-06-07T07:01:44.900Z,3264.00
2019-06-07T07:03:35.066Z,3260.00
2019-06-07T07:04:03.577Z,3268.00
2019-06-07T07:04:44.003Z,3280.00
2019-06-07T07:05:43.433Z,3284.00
2019-06-07T07:06:42.744Z,3292.00
2019-06-07T07:07:42.685Z,3312.00
2019-06-07T07:08:43.653Z,3316.00
2019-06-07T07:09:45.573Z,3332.00
2019-06-07T07:10:43.256Z,3324.00
2019-06-07T07:11:59.282Z,3336.00
2019-06-07T07:12:43.116Z,3196.00
2019-06-07T07:13:44.479Z,3300.00
2019-06-07T07:14:45.579Z,3304.00
2019-06-07T07:15:43.308Z,3304.00
2019-06-07T07:16:42.871Z,3316.00
2019-06-07T07:17:53.837Z,3336.00
2019-06-07T07:18:44.274Z,3344.00
2019-06-07T07:19:42.585Z,3348.00
2019-06-07T07:20:43.611Z,3372.00
2019-06-07T07:21:42.082Z,3380.00
2019-06-07T07:22:42.763Z,3404.00
2019-06-07T07:24:08.246Z,3412.00
2019-06-07T07:25:59.303Z,3432.00
2019-06-07T07:26:58.311Z,3412.00
2019-06-07T07:27:55.403Z,3448.00
2019-06-07T07:28:57.629Z,3496.00
2019-06-07T07:30:34.383Z,3528.00
2019-06-07T07:30:57.164Z,3596.00
2019-06-07T07:31:56.479Z,3588.00
2019-06-07T07:32:59.330Z,3584.00
2019-06-07T07:35:00.241Z,3560.00
2019-06-07T07:37:59.652Z,3588.00
2019-06-07T07:40:01.716Z,3624.00
2019-06-07T07:42:18.097Z,3616.00
2019-06-07T07:44:05.269Z,3672.00
2019-06-07T07:45:59.161Z,3724.00
2019-06-07T07:48:08.266Z,3712.00
2019-06-07T07:49:58.108Z,3676.00
2019-06-07T07:51:00.073Z,3700.00
2019-06-07T07:53:00.007Z,3696.00
2019-06-07T07:54:57.793Z,3736.00
2019-06-07T07:56:01.491Z,3736.00
2019-06-07T07:56:56.150Z,3728.00
2019-06-07T07:58:00.994Z,3716.00
2019-06-07T08:00:13.237Z,3724.00
2019-06-07T08:01:56.005Z,3676.00
2019-06-07T08:02:58.638Z,3760.00
2019-06-07T08:03:56.552Z,3720.00
2019-06-07T08:05:20.202Z,3700.00
2019-06-07T08:06:55.987Z,3764.00
2019-06-07T08:07:59.795Z,3776.00
2019-06-07T08:09:59.502Z,3708.00
2019-06-07T08:11:59.950Z,3752.00
2019-06-07T08:13:57.235Z,2144.00
2019-06-07T08:14:58.619Z,2520.00
2019-06-07T08:16:56.446Z,3872.00
2019-06-07T08:17:58.105Z,3696.00
2019-06-07T08:19:55.052Z,4008.00
2019-06-07T08:21:17.218Z,4060.00
2019-06-07T08:22:57.793Z,4032.00
2019-06-07T08:24:55.997Z,3964.00
2019-06-07T08:27:24.614Z,3904.00
2019-06-07T08:27:56.869Z,4024.00
2019-06-07T08:28:58.436Z,3968.00
2019-06-07T08:30:15.647Z,4064.00
2019-06-07T08:31:02.310Z,4140.00
2019-06-07T08:31:57.608Z,4100.00
2019-06-07T08:32:58.783Z,4104.00
2019-06-07T08:33:58.062Z,4048.00
2019-06-07T08:34:59.819Z,4056.00
2019-06-07T08:36:10.382Z,4092.00
2019-06-07T08:36:58.397Z,4112.00
2019-06-07T08:38:21.514Z,4096.00
2019-06-07T08:39:00.528Z,4100.00
2019-06-07T08:39:57.557Z,4096.00
2019-06-07T08:41:00.783Z,4068.00
2019-06-07T08:42:14.359Z,4100.00
2019-06-07T08:43:15.240Z,4148.00
2019-06-07T08:44:57.113Z,4164.00
2019-06-07T08:47:10.252Z,4208.00
2019-06-07T08:48:55.975Z,4212.00
2019-06-07T08:50:55.338Z,4148.00
2019-06-07T08:51:57.736Z,4160.00
2019-06-07T08:54:15.967Z,4164.00
2019-06-07T08:54:57.020Z,4168.00
2019-06-07T08:55:58.757Z,4228.00
2019-06-07T08:57:06.648Z,4028.00
2019-06-07T08:58:08.409Z,4216.00
2019-06-07T08:58:56.917Z,4196.00
2019-06-07T08:59:56.548Z,4176.00
2019-06-07T09:00:58.079Z,4200.00
2019-06-07T09:01:57.815Z,4184.00
2019-06-07T09:02:55.652Z,4200.00
2019-06-07T09:03:59.831Z,4264.00
2019-06-07T09:04:57.022Z,4208.00
2019-06-07T09:05:57.190Z,4220.00
2019-06-07T09:07:07.280Z,4228.00
2019-06-07T09:08:22.265Z,4252.00
2019-06-07T09:08:56.111Z,4260.00
2019-06-07T09:09:58.519Z,4260.00
2019-06-07T09:10:56.487Z,4312.00
2019-06-07T09:11:54.704Z,4312.00
2019-06-07T09:12:59.185Z,4324.00
2019-06-07T09:13:57.225Z,4304.00
2019-06-07T09:15:09.356Z,4284.00
2019-06-07T09:15:56.045Z,4344.00
2019-06-07T09:16:55.366Z,4328.00
2019-06-07T09:18:35.030Z,4316.00
2019-06-07T09:18:56.073Z,4364.00
2019-06-07T09:19:54.148Z,4324.00
2019-06-07T09:20:53.698Z,4344.00
2019-06-07T09:21:54.595Z,4328.00
2019-06-07T09:22:59.023Z,4292.00
2019-06-07T09:23:54.693Z,4320.00
2019-06-07T09:24:59.172Z,4344.00
2019-06-07T09:26:02.072Z,4368.00
2019-06-07T09:26:55.847Z,4364.00
2019-06-07T09:27:53.393Z,4392.00
2019-06-07T09:29:53.369Z,4388.00
2019-06-07T09:30:53.359Z,4396.00
2019-06-07T09:31:53.958Z,4388.00
2019-06-07T09:32:53.342Z,4384.00
2019-06-07T09:33:53.342Z,4376.00
2019-06-07T09:34:53.323Z,4336.00
2019-06-07T09:35:53.301Z,4348.00
2019-06-07T09:36:53.299Z,4372.00
2019-06-07T09:38:07.699Z,4372.00
2019-06-07T09:38:54.279Z,4352.00
2019-06-07T09:39:53.270Z,4356.00
2019-06-07T09:40:53.262Z,4384.00
2019-06-07T09:41:53.253Z,4392.00
2019-06-07T09:43:38.201Z,4420.00
2019-06-07T09:44:05.483Z,4424.00
2019-06-07T09:44:54.241Z,4412.00
2019-06-07T09:45:53.216Z,4420.00
2019-06-07T09:47:14.108Z,4440.00
2019-06-07T09:47:54.221Z,4468.00
2019-06-07T09:49:54.164Z,4444.00
2019-06-07T09:50:53.183Z,4468.00
2019-06-07T09:51:53.162Z,4504.00
2019-06-07T09:52:58.518Z,4512.00
2019-06-07T09:53:54.143Z,4528.00
2019-06-07T09:55:54.115Z,4560.00
2019-06-07T09:56:53.099Z,4568.00
2019-06-07T09:57:53.102Z,4588.00
2019-06-07T09:58:54.229Z,4632.00
2019-06-07T10:00:33.576Z,4664.00
2019-06-07T10:00:54.054Z,4596.00
2019-06-07T10:01:53.045Z,4580.00
2019-06-07T10:02:53.042Z,4596.00
2019-06-07T10:03:53.041Z,4616.00
2019-06-07T10:04:53.011Z,4616.00
2019-06-07T10:05:53.771Z,4592.00
2019-06-07T10:06:53.006Z,4596.00
2019-06-07T10:08:09.734Z,4660.00
2019-06-07T10:10:04.702Z,4636.00
2019-06-07T10:10:17.371Z,4628.00
2019-06-07T10:10:53.976Z,4636.00
2019-06-07T10:11:52.956Z,4656.00
2019-06-07T10:12:52.937Z,4660.00
2019-06-07T10:13:52.963Z,4664.00
2019-06-07T10:14:52.915Z,4656.00
2019-06-07T10:15:53.717Z,4652.00
2019-06-07T10:16:52.895Z,4680.00
2019-06-07T10:17:52.885Z,4676.00
2019-06-07T10:18:52.874Z,4696.00
2019-06-07T10:19:52.885Z,4692.00
2019-06-07T10:20:52.853Z,4732.00
2019-06-07T10:21:52.856Z,4716.00
2019-06-07T10:22:52.833Z,4724.00
2019-06-07T10:23:52.816Z,4752.00
2019-06-07T10:24:52.860Z,4704.00
2019-06-07T10:25:52.800Z,4732.00
2019-06-07T10:26:52.797Z,4684.00
2019-06-07T10:27:52.785Z,4756.00
2019-06-07T10:28:53.662Z,4808.00
2019-06-07T10:29:52.766Z,4752.00
2019-06-07T10:31:04.488Z,4756.00
2019-06-07T10:31:52.763Z,4804.00
2019-06-07T10:32:52.736Z,4796.00
2019-06-07T10:33:52.713Z,4764.00
2019-06-07T10:34:52.716Z,4824.00
2019-06-07T10:35:52.694Z,4796.00
2019-06-07T10:36:52.717Z,4812.00
2019-06-07T10:37:52.705Z,4812.00
2019-06-07T10:38:52.653Z,4764.00
2019-06-07T10:39:52.653Z,4692.00
2019-06-07T10:40:52.653Z,4788.00
2019-06-07T10:41:54.138Z,4780.00
2019-06-07T10:42:52.626Z,4728.00
2019-06-07T10:43:52.604Z,4752.00
2019-06-07T10:44:52.617Z,4748.00
2019-06-07T10:45:52.594Z,4788.00
2019-06-07T10:46:52.600Z,4768.00
2019-06-07T10:47:52.587Z,4768.00
2019-06-07T10:48:52.621Z,4760.00
2019-06-07T10:49:52.557Z,4764.00
2019-06-07T10:50:52.683Z,4776.00
2019-06-07T10:51:52.548Z,4800.00
2019-06-07T10:52:52.526Z,4792.00
2019-06-07T10:53:52.519Z,4812.00
2019-06-07T10:54:52.506Z,4768.00
2019-06-07T10:55:52.498Z,4764.00
2019-06-07T10:56:52.507Z,4752.00
2019-06-07T10:57:52.470Z,4760.00
2019-06-07T10:58:52.466Z,4808.00
2019-06-07T10:59:52.445Z,4792.00
2019-06-07T11:00:52.446Z,4768.00
2019-06-07T11:02:03.498Z,4828.00
2019-06-07T11:02:55.071Z,4820.00
2019-06-07T11:03:52.416Z,4824.00
2019-06-07T11:04:52.397Z,4820.00
2019-06-07T11:05:52.441Z,4816.00
2019-06-07T11:06:52.385Z,4840.00
2019-06-07T11:07:52.386Z,4836.00
2019-06-07T11:08:52.359Z,4712.00
2019-06-07T11:10:06.123Z,4796.00
2019-06-07T11:10:53.348Z,4720.00
2019-06-07T11:11:52.398Z,4788.00
2019-06-07T11:12:52.317Z,4820.00
2019-06-07T11:13:52.628Z,4740.00
2019-06-07T11:14:52.297Z,4740.00
2019-06-07T11:15:52.289Z,4780.00
2019-06-07T11:16:52.289Z,4744.00
2019-06-07T11:17:52.289Z,4744.00
2019-06-07T11:18:52.288Z,4772.00
2019-06-07T11:19:52.260Z,4780.00
2019-06-07T11:20:52.236Z,4792.00
2019-06-07T11:21:52.219Z,4760.00
2019-06-07T11:22:52.230Z,4792.00
2019-06-07T11:23:52.222Z,4800.00
2019-06-07T11:24:52.210Z,4760.00
2019-06-07T11:25:52.190Z,4636.00
2019-06-07T11:26:52.179Z,4620.00
2019-06-07T11:27:52.172Z,4592.00
2019-06-07T11:28:52.174Z,4724.00
2019-06-07T11:29:52.147Z,4756.00
2019-06-07T11:30:52.271Z,4748.00
2019-06-07T11:31:52.201Z,4804.00
2019-06-07T11:33:02.795Z,4816.00
2019-06-07T11:33:52.218Z,4856.00
2019-06-07T11:34:52.111Z,4840.00
2019-06-07T11:35:52.093Z,4824.00
2019-06-07T11:36:52.071Z,4876.00
2019-06-07T11:37:52.071Z,4820.00
2019-06-07T11:38:52.052Z,4836.00
2019-06-07T11:39:52.092Z,4832.00
2019-06-07T11:40:52.042Z,4832.00
2019-06-07T11:41:52.024Z,4876.00
2019-06-07T11:42:52.859Z,4804.00
2019-06-07T11:43:52.004Z,4832.00
2019-06-07T11:44:56.678Z,4808.00
2019-06-07T11:45:53.022Z,4792.00
2019-06-07T11:46:51.984Z,4788.00
2019-06-07T11:47:52.001Z,4760.00
2019-06-07T11:48:51.942Z,4760.00
2019-06-07T11:49:51.950Z,4756.00
2019-06-07T11:50:51.935Z,4764.00
2019-06-07T11:51:51.932Z,4740.00
2019-06-07T11:52:51.914Z,4736.00
2019-06-07T11:53:51.893Z,4776.00
2019-06-07T11:54:51.929Z,4792.00
2019-06-07T11:55:51.925Z,4756.00
2019-06-07T11:56:51.892Z,4776.00
2019-06-07T11:57:51.866Z,4816.00
2019-06-07T11:58:51.855Z,4764.00
2019-06-07T11:59:51.833Z,4808.00
2019-06-07T12:00:51.846Z,4776.00
2019-06-07T12:01:51.824Z,4768.00
2019-06-07T12:02:51.813Z,4844.00
2019-06-07T12:04:03.182Z,4784.00
2019-06-07T12:04:51.799Z,4768.00
2019-06-07T12:05:51.775Z,4792.00
2019-06-07T12:06:51.788Z,4696.00
2019-06-07T12:07:51.760Z,4680.00
2019-06-07T12:08:51.761Z,4668.00
2019-06-07T12:09:56.284Z,4608.00
2019-06-07T12:10:52.741Z,4636.00
2019-06-07T12:11:51.729Z,4608.00
2019-06-07T12:12:51.711Z,4608.00
2019-06-07T12:13:51.699Z,4596.00
2019-06-07T12:14:51.708Z,4576.00
2019-06-07T12:15:51.691Z,4552.00
2019-06-07T12:16:51.672Z,4548.00
2019-06-07T12:17:51.709Z,4616.00
2019-06-07T12:18:51.651Z,4592.00
2019-06-07T12:19:51.650Z,4652.00
2019-06-07T12:20:51.629Z,4588.00
2019-06-07T12:21:51.619Z,4596.00
2019-06-07T12:22:51.640Z,4612.00
2019-06-07T12:23:51.611Z,4608.00
2019-06-07T12:24:51.635Z,4644.00
2019-06-07T12:25:51.598Z,4604.00
2019-06-07T12:26:51.613Z,4752.00
2019-06-07T12:27:51.638Z,4628.00
2019-06-07T12:28:51.559Z,4604.00
2019-06-07T12:29:51.545Z,4572.00
2019-06-07T12:30:54.507Z,4552.00
2019-06-07T12:31:51.534Z,4512.00
2019-06-07T12:32:51.516Z,4504.00
2019-06-07T12:33:51.678Z,4484.00
2019-06-07T12:35:01.367Z,4488.00
2019-06-07T12:35:51.495Z,4492.00
2019-06-07T12:36:51.469Z,4524.00
2019-06-07T12:37:51.452Z,4480.00
2019-06-07T12:38:51.454Z,4440.00
2019-06-07T12:39:51.448Z,4516.00
2019-06-07T12:40:57.444Z,4456.00
2019-06-07T12:41:52.434Z,4396.00
2019-06-07T12:42:51.431Z,4324.00
2019-06-07T12:43:51.396Z,4336.00
2019-06-07T12:44:51.389Z,4432.00
2019-06-07T12:45:51.438Z,4400.00
2019-06-07T12:46:51.368Z,4400.00
2019-06-07T12:47:51.359Z,4352.00